Time;durP1;ratioP1;P1;durP2;ratioP2;P2;SDS_P1;SDS_P2;PMS_P1;PMS_P2;Temp;Humidity;BMP_temperature;BMP_pressure;BME280_temperature;BME280_humidity;BME280_pressure;Samples;Min_cycle;Max_cycle;Signal;HPM_P1;HPM_P2
2023/05/16 00:00:42;;;;;;;;;;;;;;;12.27;76.01;99629.27;110689;1263;21969;-82
2023/05/16 00:03:25;;;;;;;12.10;10.90;;;;;;;12.20;76.12;99627.74;110706;1263;21980;-81
2023/05/16 00:05:56;;;;;;;11.50;10.50;;;;;;;12.19;76.03;99623.77;109558;1270;24460;-81
2023/05/16 00:08:27;;;;;;;10.60;9.60;;;;;;;12.21;75.96;99624.02;109700;1270;22866;-81
2023/05/16 00:10:57;;;;;;;10.40;9.50;;;;;;;12.21;75.89;99624.70;109343;1270;22869;-83
2023/05/16 00:13:29;;;;;;;11.00;9.90;;;;;;;12.22;75.79;99624.81;109288;1276;22008;-82
2023/05/16 00:16:01;;;;;;;10.10;9.10;;;;;;;12.24;75.91;99621.20;109189;1276;22005;-82
2023/05/16 00:18:31;;;;;;;10.50;9.60;;;;;;;12.27;75.86;99619.98;109327;1276;22074;-81
2023/05/16 00:21:01;;;;;;;11.30;10.30;;;;;;;12.28;75.67;99619.77;108846;1281;22177;-81
2023/05/16 00:23:32;;;;;;;11.10;9.90;;;;;;;12.28;75.74;99616.31;108923;1281;22039;-81
2023/05/16 00:26:03;;;;;;;10.40;9.40;;;;;;;12.29;75.74;99617.61;108876;1281;22755;-81
2023/05/16 00:28:32;;;;;;;11.00;9.90;;;;;;;12.30;75.70;99613.71;108900;1281;22314;-80
2023/05/16 00:31:05;;;;;;;13.60;11.40;;;;;;;12.31;75.61;99616.27;109096;1275;21997;-81
2023/05/16 00:33:35;;;;;;;12.90;10.60;;;;;;;12.31;75.40;99618.41;109406;1275;22050;-81
2023/05/16 00:36:05;;;;;;;11.70;10.60;;;;;;;12.27;75.22;99618.94;109481;1268;326193;-80
2023/05/16 00:38:36;;;;;;;11.40;9.50;;;;;;;12.23;75.19;99619.86;110413;1263;21938;-80
2023/05/16 00:41:09;;;;;;;13.10;11.70;;;;;;;12.23;75.13;99620.58;110214;1268;22104;-82
2023/05/16 00:43:39;;;;;;;12.80;11.70;;;;;;;12.16;75.13;99625.67;110151;1268;22829;-82
2023/05/16 00:46:09;;;;;;;13.80;11.90;;;;;;;12.12;75.22;99623.80;110041;1268;21993;-81
2023/05/16 00:48:40;;;;;;;13.00;11.90;;;;;;;12.11;75.26;99626.50;109559;1272;21998;-82
2023/05/16 00:51:13;;;;;;;15.10;11.90;;;;;;;12.08;75.22;99624.90;109228;1276;23746;-82
2023/05/16 00:53:43;;;;;;;12.80;11.50;;;;;;;12.07;75.17;99628.23;109059;1276;21984;-82
2023/05/16 00:56:20;;;;;;;11.70;10.60;;;;;;;12.05;75.09;99630.80;109069;1276;22004;-82
2023/05/16 00:58:50;;;;;;;15.70;10.70;;;;;;;12.04;75.11;99628.81;109151;1276;22745;-82
2023/05/16 01:01:23;;;;;;;14.40;11.30;;;;;;;12.01;75.12;99630.52;109195;1276;21987;-84
2023/05/16 01:03:57;;;;;;;10.90;10.00;;;;;;;11.99;75.07;99633.77;109171;1276;21987;-80
2023/05/16 01:06:32;;;;;;;10.50;9.70;;;;;;;11.98;75.07;99633.14;109304;1272;23624;-82
2023/05/16 01:09:07;;;;;;;10.80;9.70;;;;;;;11.97;75.14;99631.80;109616;1268;21982;-80
2023/05/16 01:11:58;;;;;;;11.10;9.70;;;;;;;11.95;75.02;99631.23;109250;1272;21974;-80
2023/05/16 01:15:09;;;;;;;11.10;10.10;;;;;;;11.89;74.95;99632.75;109585;1268;21978;-81
2023/05/16 01:18:13;;;;;;;9.70;8.70;;;;;;;11.84;75.09;99635.77;110297;1256;23048;-82
2023/05/16 01:20:55;;;;;;;10.20;9.10;;;;;;;11.78;75.01;99635.90;110057;1269;22077;-81
2023/05/16 01:23:52;;;;;;;11.40;10.30;;;;;;;11.72;74.85;99634.34;109812;1269;23039;-82
2023/05/16 01:26:27;;;;;;;10.80;9.90;;;;;;;11.66;74.90;99636.23;109583;1269;23743;-81
2023/05/16 01:29:00;;;;;;;11.60;10.40;;;;;;;11.66;75.14;99632.21;109362;1269;23118;-82
2023/05/16 01:31:32;;;;;;;11.80;10.40;;;;;;;11.66;75.12;99632.56;109688;1269;21978;-81
2023/05/16 01:34:02;;;;;;;11.30;10.20;;;;;;;11.65;74.87;99632.08;109743;1269;23075;-81
2023/05/16 01:36:43;;;;;;;12.50;10.60;;;;;;;11.62;74.78;99634.36;110131;1268;21984;-82
2023/05/16 01:39:27;;;;;;;11.80;10.60;;;;;;;11.60;74.88;99639.32;110424;1265;22025;-81
2023/05/16 01:42:08;;;;;;;11.80;10.10;;;;;;;11.59;74.80;99638.19;110664;1264;21993;-82
2023/05/16 01:44:58;;;;;;;11.80;10.80;;;;;;;11.59;74.75;99643.02;110113;1264;21990;-81
2023/05/16 01:47:32;;;;;;;13.10;10.40;;;;;;;11.58;74.79;99647.11;110361;1264;21979;-81
2023/05/16 01:50:14;;;;;;;11.50;10.30;;;;;;;11.59;74.74;99648.29;110171;1264;22325;-82
2023/05/16 01:52:55;;;;;;;14.80;10.40;;;;;;;11.59;74.64;99652.64;110642;1264;23827;-80
2023/05/16 01:55:42;;;;;;;13.10;12.00;;;;;;;11.58;74.66;99651.64;110219;1256;22036;-77
2023/05/16 01:58:14;;;;;;;12.90;10.70;;;;;;;11.60;74.64;99653.27;110212;1264;22929;-77
2023/05/16 02:00:45;;;;;;;;;;;;;;;11.63;74.41;99652.57;110389;1260;23573;-78
2023/05/16 02:03:15;;;;;;;12.10;11.00;;;;;;;11.57;74.69;99656.05;110472;1264;22715;-83
2023/05/16 02:05:47;;;;;;;12.30;11.00;;;;;;;11.57;74.43;99666.16;110742;1264;22269;-84
2023/05/16 02:08:17;;;;;;;11.80;10.40;;;;;;;11.59;74.34;99669.91;110313;1264;23697;-84
2023/05/16 02:10:47;;;;;;;15.00;11.70;;;;;;;11.60;74.23;99672.27;110273;1265;21979;-84
2023/05/16 02:13:18;;;;;;;11.80;10.90;;;;;;;11.62;74.19;99676.19;110099;1264;21977;-84
2023/05/16 02:15:48;;;;;;;10.80;9.60;;;;;;;11.63;74.13;99670.00;110385;1264;21995;-82
2023/05/16 02:18:18;;;;;;;12.10;11.00;;;;;;;11.63;73.80;99670.70;109755;1269;22638;-81
2023/05/16 02:20:51;;;;;;;11.70;10.30;;;;;;;11.62;73.73;99677.73;109936;1269;23045;-82
2023/05/16 02:23:23;;;;;;;11.70;10.70;;;;;;;11.61;73.59;99678.65;110008;1269;23051;-82
2023/05/16 02:25:54;;;;;;;11.30;10.30;;;;;;;11.60;73.62;99680.13;110242;1269;22120;-82
2023/05/16 02:28:25;;;;;;;11.60;10.50;;;;;;;11.57;73.54;99677.14;109581;1273;23071;-82
2023/05/16 02:30:59;;;;;;;12.10;11.00;;;;;;;11.55;73.42;99679.69;109358;1273;22002;-81
2023/05/16 02:33:29;;;;;;;13.00;12.00;;;;;;;11.52;73.47;99682.11;109327;1274;22077;-82
2023/05/16 02:36:03;;;;;;;12.30;11.10;;;;;;;11.49;73.28;99687.84;109664;1269;21950;-83
2023/05/16 02:38:33;;;;;;;12.60;11.40;;;;;;;11.47;73.36;99689.48;109721;1269;21988;-83
2023/05/16 02:41:03;;;;;;;14.30;12.40;;;;;;;11.45;73.30;99686.47;109919;1269;22985;-81
2023/05/16 02:43:33;;;;;;;14.10;12.40;;;;;;;11.42;73.14;99683.86;109336;1276;22108;-82
2023/05/16 02:46:08;;;;;;;14.50;12.90;;;;;;;11.37;73.07;99687.74;108869;1279;22129;-82
2023/05/16 02:48:38;;;;;;;12.40;11.30;;;;;;;11.34;73.25;99693.10;109053;1280;21988;-82
2023/05/16 02:51:07;;;;;;;18.30;13.60;;;;;;;11.32;73.12;99695.50;109097;1279;22058;-81
2023/05/16 02:53:37;;;;;;;13.80;11.90;;;;;;;11.30;73.23;99697.33;108824;1281;22006;-82
2023/05/16 02:56:07;;;;;;;13.60;12.20;;;;;;;11.29;73.27;99696.14;108977;1279;21982;-82
2023/05/16 02:58:38;;;;;;;;;;;;;;;11.29;73.29;99702.41;108956;1280;22102;-82
2023/05/16 03:01:08;;;;;;;12.60;11.40;;;;;;;11.19;73.38;99707.48;108981;1274;21996;-81
2023/05/16 03:03:42;;;;;;;13.80;12.50;;;;;;;11.16;73.61;99708.51;109521;1268;22436;-82
2023/05/16 03:06:12;;;;;;;13.00;11.80;;;;;;;11.16;73.60;99707.98;109345;1274;22955;-81
2023/05/16 03:08:42;;;;;;;13.50;12.20;;;;;;;11.18;73.74;99709.64;109256;1270;23682;-83
2023/05/16 03:11:14;;;;;;;13.40;12.10;;;;;;;11.20;73.84;99713.52;109307;1271;23653;-82
2023/05/16 03:13:45;;;;;;;15.10;13.30;;;;;;;11.22;73.57;99716.89;109336;1264;23078;-81
2023/05/16 03:16:15;;;;;;;12.90;11.70;;;;;;;11.21;73.69;99719.75;109356;1274;22060;-81
2023/05/16 03:18:47;;;;;;;13.90;11.10;;;;;;;11.19;73.67;99718.45;109181;1277;21990;-81
2023/05/16 03:21:17;;;;;;;16.20;12.60;;;;;;;11.20;73.76;99719.78;109216;1277;23094;-82
2023/05/16 03:23:48;;;;;;;13.10;11.80;;;;;;;11.23;73.80;99721.40;109321;1271;23721;-81
2023/05/16 03:26:21;;;;;;;33.10;30.20;;;;;;;11.24;73.80;99725.16;109651;1270;21996;-83
2023/05/16 03:28:53;;;;;;;14.30;13.00;;;;;;;11.25;73.86;99731.20;109617;1271;24313;-83
2023/05/16 03:31:25;;;;;;;17.10;15.60;;;;;;;11.25;73.65;99738.68;109638;1271;21985;-83
2023/05/16 03:34:00;;;;;;;17.90;16.10;;;;;;;11.23;73.63;99743.32;109652;1271;21976;-83
2023/05/16 03:36:33;;;;;;;12.80;11.60;;;;;;;11.24;73.75;99750.08;109955;1265;22930;-82
2023/05/16 03:39:03;;;;;;;11.80;10.90;;;;;;;11.26;73.84;99747.02;110687;1264;21985;-82
2023/05/16 03:41:34;;;;;;;12.10;10.70;;;;;;;11.31;73.85;99753.92;110283;1264;21967;-84
2023/05/16 03:44:07;;;;;;;11.90;10.80;;;;;;;11.35;73.81;99754.74;110137;1264;22053;-81
2023/05/16 03:46:37;;;;;;;11.60;10.50;;;;;;;11.40;73.84;99761.10;109748;1271;22379;-81
2023/05/16 03:49:07;;;;;;;12.30;11.00;;;;;;;11.46;73.87;99761.50;109488;1271;23056;-83
2023/05/16 03:51:38;;;;;;;12.40;11.30;;;;;;;11.55;73.86;99759.98;109639;1271;23012;-83
2023/05/16 03:54:08;;;;;;;10.80;9.80;;;;;;;11.61;73.95;99767.88;109574;1274;21994;-83
2023/05/16 03:56:38;;;;;;;12.20;11.10;;;;;;;11.69;73.92;99773.06;109058;1274;23712;-83
2023/05/16 03:59:08;;;;;;;11.40;10.50;;;;;;;11.77;73.86;99775.95;109598;1274;21987;-82
2023/05/16 04:01:43;;;;;;;13.10;11.00;;;;;;;11.85;73.66;99780.61;108950;1278;23637;-83
2023/05/16 04:04:16;;;;;;;13.60;11.00;;;;;;;11.92;73.65;99783.95;108843;1284;22006;-84
2023/05/16 04:06:51;;;;;;;11.80;10.70;;;;;;;12.02;73.58;99785.69;108647;1280;22047;-82
2023/05/16 04:09:43;;;;;;;12.50;9.90;;;;;;;12.11;73.45;99785.91;108809;1283;23735;-82
2023/05/16 04:12:13;;;;;;;12.50;11.20;;;;;;;12.21;73.29;99785.35;109061;1276;22993;-81
2023/05/16 04:14:52;;;;;;;13.10;10.60;;;;;;;12.34;73.42;99785.01;109238;1276;22009;-80
2023/05/16 04:17:22;;;;;;;11.10;10.00;;;;;;;12.46;73.19;99790.48;109321;1276;22019;-81
2023/05/16 04:19:55;;;;;;;12.40;10.80;;;;;;;12.57;72.82;99796.70;109371;1271;22025;-81
2023/05/16 04:22:26;;;;;;;12.90;10.50;;;;;;;12.67;72.53;99792.46;109760;1271;22734;-80
2023/05/16 04:25:02;;;;;;;11.00;10.00;;;;;;;12.77;72.25;99795.04;109289;1273;22979;-82
2023/05/16 04:27:31;;;;;;;10.60;9.20;;;;;;;12.92;72.43;99798.23;109054;1277;22457;-83
2023/05/16 04:30:06;;;;;;;13.00;9.80;;;;;;;13.13;72.50;99803.33;109595;1271;21999;-81
2023/05/16 04:32:36;;;;;;;9.60;8.80;;;;;;;13.39;72.39;99811.45;109765;1269;22677;-81
2023/05/16 04:35:15;;;;;;;9.40;8.60;;;;;;;13.70;72.22;99822.27;109800;1271;22061;-79
2023/05/16 04:37:52;;;;;;;8.90;8.00;;;;;;;14.08;72.26;99824.36;109519;1271;23615;-78
2023/05/16 04:40:24;;;;;;;10.50;8.30;;;;;;;14.51;71.85;99828.92;109601;1272;23036;-80
2023/05/16 04:42:54;;;;;;;8.80;8.00;;;;;;;14.91;70.67;99829.95;109605;1271;21986;-81
2023/05/16 04:45:23;;;;;;;8.30;7.60;;;;;;;15.22;69.63;99828.08;109569;1268;23614;-80
2023/05/16 04:47:54;;;;;;;8.10;7.30;;;;;;;15.57;68.93;99826.30;110044;1268;23721;-80
2023/05/16 04:50:24;;;;;;;9.20;8.00;;;;;;;15.88;67.20;99826.38;109357;1272;21972;-79
2023/05/16 04:52:54;;;;;;;8.40;7.70;;;;;;;16.08;65.90;99837.31;109594;1272;22021;-79
2023/05/16 04:55:35;;;;;;;8.60;7.80;;;;;;;16.15;64.71;99846.08;109600;1271;21986;-80
2023/05/16 04:58:23;;;;;;;12.30;7.30;;;;;;;16.31;64.58;99853.92;109761;1270;21984;-79
2023/05/16 05:00:59;;;;;;;7.80;7.10;;;;;;;16.62;64.21;99858.27;109949;1270;21984;-81
2023/05/16 05:03:36;;;;;;;9.90;7.70;;;;;;;16.85;63.05;99860.58;110109;1270;21970;-80
2023/05/16 05:06:06;;;;;;;7.70;6.90;;;;;;;17.05;62.26;99868.09;109270;1274;22070;-79
2023/05/16 05:08:36;;;;;;;10.50;7.00;;;;;;;17.07;60.74;99872.89;109290;1276;21981;-80
2023/05/16 05:11:06;;;;;;;7.90;7.10;;;;;;;16.92;59.73;99878.33;109021;1276;22229;-80
2023/05/16 05:13:37;;;;;;;9.40;6.90;;;;;;;16.67;59.33;99888.86;109342;1276;22028;-81
2023/05/16 05:16:09;;;;;;;7.90;6.40;;;;;;;16.41;59.15;99897.87;109666;1272;24983;-81
2023/05/16 05:18:47;;;;;;;9.00;6.90;;;;;;;16.11;59.41;99897.27;109443;1272;23785;-79
2023/05/16 05:21:24;;;;;;;9.50;6.70;;;;;;;15.85;59.66;99904.67;109482;1272;21976;-80
2023/05/16 05:24:03;;;;;;;11.00;6.60;;;;;;;15.47;59.87;99900.60;109836;1265;21968;-79
2023/05/16 05:26:36;;;;;;;7.20;6.60;;;;;;;15.08;60.32;99891.08;110388;1265;23058;-80
2023/05/16 05:29:09;;;;;;;7.60;6.60;;;;;;;14.77;60.96;99879.69;110313;1265;23577;-80
2023/05/16 05:32:01;;;;;;;9.00;7.50;;;;;;;14.49;61.47;99873.16;110170;1265;21994;-80
2023/05/16 05:34:35;;;;;;;8.90;6.80;;;;;;;14.34;63.08;99882.11;110220;1265;22016;-81
2023/05/16 05:37:25;;;;;;;9.40;7.00;;;;;;;14.36;63.47;99897.20;110700;1264;21998;-81
2023/05/16 05:40:29;;;;;;;11.40;7.30;;;;;;;14.32;63.55;99912.02;109812;1270;21979;-82
2023/05/16 05:43:05;;;;;;;7.00;6.30;;;;;;;14.35;63.75;99926.36;109714;1270;24301;-81
2023/05/16 05:45:47;;;;;;;7.00;6.30;;;;;;;14.37;63.89;99935.30;109827;1270;22458;-81
2023/05/16 05:48:17;;;;;;;7.80;7.10;;;;;;;14.40;63.90;99931.98;109810;1270;21981;-81
2023/05/16 05:50:47;;;;;;;8.60;7.50;;;;;;;14.46;64.12;99927.46;109705;1270;22021;-80
2023/05/16 05:53:17;;;;;;;8.60;7.80;;;;;;;14.59;64.42;99924.37;109773;1270;22463;-81
2023/05/16 05:56:25;;;;;;;8.40;7.70;;;;;;;14.79;64.44;99924.38;110064;1265;23086;-81
2023/05/16 05:58:58;;;;;;;7.60;6.80;;;;;;;14.95;63.75;99928.65;110066;1264;24392;-81
2023/05/16 06:01:39;;;;;;;7.70;6.90;;;;;;;15.03;63.10;99936.21;110088;1270;21989;-83
2023/05/16 06:04:20;;;;;;;9.20;7.00;;;;;;;15.06;62.65;99942.18;109695;1265;22070;-81
2023/05/16 06:07:07;;;;;;;8.20;6.70;;;;;;;15.08;62.58;99948.36;109943;1270;22032;-81
2023/05/16 06:10:03;;;;;;;8.30;6.20;;;;;;;15.27;63.31;99953.95;109750;1270;22143;-80
2023/05/16 06:12:56;;;;;;;;;;;;;;;;;;;;;
2023/05/16 06:15:49;;;;;;;7.30;6.60;;;;;;;16.06;63.01;99957.84;109858;1265;22021;-81
2023/05/16 06:18:36;;;;;;;7.50;6.70;;;;;;;16.33;61.79;99955.65;109786;1270;21992;-80
2023/05/16 06:21:16;;;;;;;8.70;6.50;;;;;;;16.56;60.96;99956.23;110050;1264;21946;-82
2023/05/16 06:24:19;;;;;;;9.20;5.40;;;;;;;16.53;59.23;99961.33;110732;1264;22009;-80
2023/05/16 06:27:13;;;;;;;6.10;5.40;;;;;;;16.48;59.11;99967.98;110411;1264;23092;-81
2023/05/16 06:30:05;;;;;;;7.30;5.40;;;;;;;16.40;58.52;99971.19;110571;1265;21961;-82
2023/05/16 06:32:40;;;;;;;6.50;5.90;;;;;;;16.37;59.11;99970.85;109720;1268;21990;-82
2023/05/16 06:35:14;;;;;;;16.50;7.80;;;;;;;16.68;60.28;99969.80;110133;1255;21974;-83
2023/05/16 06:37:47;;;;;;;9.30;6.90;;;;;;;17.08;59.50;99971.90;109707;1268;23770;-82
2023/05/16 06:40:20;;;;;;;8.10;6.20;;;;;;;17.35;58.33;99982.46;109614;1272;22002;-83
2023/05/16 06:43:02;;;;;;;6.40;4.90;;;;;;;17.52;57.16;99984.77;109134;1278;22570;-83
2023/05/16 06:45:35;;;;;;;5.00;4.50;;;;;;;17.67;56.92;99985.11;108876;1282;22012;-81
2023/05/16 06:48:10;;;;;;;10.20;6.00;;;;;;;17.92;56.53;99987.52;108876;1276;23075;-81
2023/05/16 06:50:41;;;;;;;7.30;4.70;;;;;;;18.16;55.61;99993.16;108838;1280;22009;-81
2023/05/16 06:53:20;;;;;;;8.90;5.00;;;;;;;18.39;55.11;99998.45;108848;1280;22139;-80
2023/05/16 06:55:58;;;;;;;7.70;4.80;;;;;;;18.65;54.80;99998.22;108649;1286;21998;-80
2023/05/16 06:58:30;;;;;;;6.60;4.40;;;;;;;18.97;54.54;99996.11;108507;1289;24328;-81
2023/05/16 07:01:01;;;;;;;6.60;4.30;;;;;;;19.47;54.36;100000.45;108501;1288;22097;-80
2023/05/16 07:03:40;;;;;;;7.00;4.70;;;;;;;19.75;51.99;100004.37;108569;1286;23216;-81
2023/05/16 07:06:14;;;;;;;5.90;4.30;;;;;;;19.77;50.58;100006.73;108878;1280;22541;-79
2023/05/16 07:08:47;;;;;;;5.00;4.50;;;;;;;19.78;50.72;100017.55;109443;1273;21984;-80
2023/05/16 07:11:25;;;;;;;7.20;4.50;;;;;;;19.88;50.57;100024.37;109375;1273;22038;-81
2023/05/16 07:13:59;;;;;;;5.20;4.70;;;;;;;20.12;50.76;100023.40;109335;1274;22480;-80
2023/05/16 07:16:42;;;;;;;8.10;4.30;;;;;;;20.38;49.88;100026.07;109340;1270;21946;-80
2023/05/16 07:19:22;;;;;;;9.20;4.10;;;;;;;20.50;49.09;100026.08;109459;1273;22668;-81
2023/05/16 07:21:58;;;;;;;7.40;4.70;;;;;;;20.56;48.74;100032.34;109896;1269;21974;-81
2023/05/16 07:24:36;;;;;;;8.80;4.70;;;;;;;20.49;48.35;100036.75;110148;1268;23625;-81
2023/05/16 07:27:10;;;;;;;4.70;4.20;;;;;;;20.60;48.57;100042.58;109744;1268;21998;-81
2023/05/16 07:29:44;;;;;;;12.70;5.20;;;;;;;20.80;48.58;100040.95;110005;1268;21971;-80
2023/05/16 07:32:15;;;;;;;4.80;4.10;;;;;;;20.99;47.66;100038.77;109876;1268;21974;-81
2023/05/16 07:34:49;;;;;;;6.50;4.00;;;;;;;21.08;47.34;100037.06;110159;1268;22910;-85
2023/05/16 07:37:27;;;;;;;6.50;3.90;;;;;;;21.33;47.19;100036.81;109891;1264;22007;-79
2023/05/16 07:40:17;;;;;;;7.50;4.70;;;;;;;21.36;46.01;100039.10;110212;1264;21967;-80
2023/05/16 07:42:51;;;;;;;6.20;5.60;;;;;;;21.34;46.52;100033.59;110732;1264;21988;-79
2023/05/16 07:45:39;;;;;;;10.80;4.90;;;;;;;21.31;45.74;100032.63;110548;1251;21976;-79
2023/05/16 07:48:28;;;;;;;;;;;;;;;;;;;;;
2023/05/16 07:51:27;;;;;;;4.30;3.90;;;;;;;21.09;47.14;100030.66;110528;1264;22352;-80
2023/05/16 07:54:04;;;;;;;6.80;3.80;;;;;;;21.42;47.28;100031.86;110723;1264;21985;-79
2023/05/16 07:56:41;;;;;;;4.80;4.40;;;;;;;21.64;46.33;100031.30;110285;1264;21971;-81
2023/05/16 07:59:25;;;;;;;5.30;3.90;;;;;;;21.90;46.14;100028.83;110252;1264;22987;-77
2023/05/16 08:02:06;;;;;;;6.60;4.50;;;;;;;22.13;45.10;100027.91;110578;1265;22063;-78
2023/05/16 08:05:16;;;;;;;7.40;4.20;;;;;;;22.55;45.11;100024.82;110403;1264;22540;-80
2023/05/16 08:08:05;;;;;;;4.00;3.30;;;;;;;22.97;44.39;100022.15;110480;1264;21973;-79
2023/05/16 08:11:06;;;;;;;4.60;3.30;;;;;;;23.21;43.04;100025.74;110306;1264;21972;-79
2023/05/16 08:13:44;;;;;;;4.50;3.40;;;;;;;23.21;42.37;100029.66;110111;1264;21968;-79
2023/05/16 08:16:45;;;;;;;5.80;3.70;;;;;;;23.40;42.65;100032.42;110346;1264;23592;-79
2023/05/16 08:19:28;;;;;;;3.90;3.40;;;;;;;23.73;42.32;100031.92;110568;1264;21968;-79
2023/05/16 08:22:21;;;;;;;10.00;5.10;;;;;;;23.89;41.28;100030.33;110785;1264;21965;-81
2023/05/16 08:25:41;;;;;;;5.10;3.80;;;;;;;23.84;41.39;100028.71;110540;1265;22388;-79
2023/05/16 08:28:35;;;;;;;6.30;3.60;;;;;;;23.75;41.69;100032.76;110790;1264;24318;-81
2023/05/16 08:32:16;;;;;;;7.10;3.10;;;;;;;23.74;41.61;100039.42;109950;1262;22195;-80
2023/05/16 08:39:40;;;;;;;4.70;3.50;;;;;;;23.32;41.53;100053.80;108803;1280;22015;-81
2023/05/16 08:43:24;;;;;;;4.40;3.60;;;;;;;23.22;41.78;100056.39;108773;1279;24333;-80
2023/05/16 08:46:31;;;;;;;8.50;4.50;;;;;;;23.27;42.10;100054.63;108599;1284;22041;-80
2023/05/16 08:49:10;;;;;;;4.90;3.40;;;;;;;23.18;41.89;100059.73;108631;1280;23052;-78
2023/05/16 08:56:08;;;;;;;4.80;3.30;;;;;;;22.81;41.72;100057.54;107642;1298;22014;-78
2023/05/16 08:59:02;;;;;;;4.90;3.40;;;;;;;22.72;42.72;100058.02;107605;1298;22342;-79
2023/05/16 09:01:36;;;;;;;5.40;3.30;;;;;;;22.76;42.66;100056.58;107167;1298;23083;-80
2023/05/16 09:04:21;;;;;;;6.30;3.80;;;;;;;22.81;42.91;100058.91;107443;1298;22008;-80
2023/05/16 09:07:09;;;;;;;;;;;;;;;;;;;;;
2023/05/16 09:10:10;;;;;;;6.60;4.40;;;;;;;23.15;41.85;100062.67;107612;1298;22091;-79
2023/05/16 09:12:47;;;;;;;12.00;7.10;;;;;;;23.15;42.41;100068.85;107667;1295;24408;-81
2023/05/16 09:15:46;;;;;;;5.40;3.50;;;;;;;23.23;41.94;100072.97;108303;1282;22015;-80
2023/05/16 09:19:00;;;;;;;5.20;3.50;;;;;;;23.16;41.74;100078.78;109363;1277;23709;-80
2023/05/16 09:22:13;;;;;;;3.30;3.00;;;;;;;22.95;41.62;100087.40;109249;1278;21990;-80
2023/05/16 09:25:27;;;;;;;4.00;3.20;;;;;;;23.03;42.51;100090.09;109193;1269;23053;-80
2023/05/16 09:28:25;;;;;;;;;;;;;;;;;;;;;
2023/05/16 09:31:25;;;;;;;6.10;3.30;;;;;;;23.25;41.65;100093.48;110564;1264;22019;-77
2023/05/16 09:34:12;;;;;;;3.40;3.10;;;;;;;23.19;41.78;100091.23;110407;1265;23690;-81
2023/05/16 09:36:42;;;;;;;4.60;3.30;;;;;;;23.30;42.22;100090.05;110205;1264;21985;-78
2023/05/16 09:39:16;;;;;;;7.90;5.70;;;;;;;23.49;42.26;100094.39;110358;1264;21987;-79
2023/05/16 09:41:51;;;;;;;7.00;3.20;;;;;;;23.66;41.25;100095.83;110457;1259;23025;-78
2023/05/16 09:44:21;;;;;;;10.20;6.40;;;;;;;23.59;40.80;100100.77;110280;1264;23029;-78
2023/05/16 09:47:03;;;;;;;6.10;4.80;;;;;;;23.60;41.48;100104.70;109957;1265;21988;-77
2023/05/16 09:49:41;;;;;;;6.00;3.40;;;;;;;23.63;41.11;100103.92;109908;1264;22222;-78
2023/05/16 09:52:20;;;;;;;4.50;3.00;;;;;;;23.37;40.94;100100.86;109524;1269;22061;-78
2023/05/16 09:55:10;;;;;;;3.30;3.00;;;;;;;23.32;42.03;100104.59;109757;1269;21968;-78
2023/05/16 09:58:07;;;;;;;7.30;4.50;;;;;;;23.39;41.58;100108.14;109707;1269;21970;-78
2023/05/16 10:00:58;;;;;;;3.80;2.90;;;;;;;23.27;41.03;100115.67;109161;1274;22193;-77
2023/05/16 10:03:36;;;;;;;11.50;2.90;;;;;;;23.03;41.20;100121.70;109322;1274;21980;-77
2023/05/16 10:06:12;;;;;;;7.30;3.00;;;;;;;22.90;41.68;100123.16;109233;1274;23615;-79
2023/05/16 10:08:52;;;;;;;6.70;3.90;;;;;;;22.91;42.37;100126.48;109272;1274;23755;-78
2023/05/16 10:11:23;;;;;;;7.90;3.30;;;;;;;23.07;42.11;100129.99;109424;1270;21980;-78
2023/05/16 10:13:57;;;;;;;7.20;3.60;;;;;;;23.19;41.67;100131.38;109211;1274;21993;-79
2023/05/16 10:16:34;;;;;;;3.20;2.90;;;;;;;23.08;40.82;100135.59;109396;1274;21981;-78
2023/05/16 10:19:10;;;;;;;7.90;2.80;;;;;;;22.92;41.37;100136.65;109386;1271;23455;-78
2023/05/16 10:21:53;;;;;;;6.20;3.20;;;;;;;22.91;42.09;100133.76;109419;1271;23014;-77
2023/05/16 10:25:08;;;;;;;4.70;3.10;;;;;;;23.07;42.39;100139.88;109208;1271;21979;-76
2023/05/16 10:27:41;;;;;;;4.00;2.90;;;;;;;23.28;41.78;100153.06;109759;1271;21943;-78
2023/05/16 10:30:30;;;;;;;3.30;2.70;;;;;;;23.40;41.17;100164.31;109021;1275;22024;-78
2023/05/16 10:33:19;;;;;;;3.00;2.70;;;;;;;23.26;40.21;100172.27;109839;1269;23694;-77
2023/05/16 10:35:54;;;;;;;8.90;3.10;;;;;;;22.97;40.27;100173.15;109551;1269;22823;-77
2023/05/16 10:38:28;;;;;;;3.90;2.80;;;;;;;22.73;40.82;100177.75;109828;1268;21982;-78
2023/05/16 10:41:05;;;;;;;5.80;3.10;;;;;;;22.54;41.33;100176.67;109324;1274;22010;-79
2023/05/16 10:43:38;;;;;;;3.80;3.00;;;;;;;22.50;42.01;100173.66;108820;1279;22038;-78
2023/05/16 10:46:13;;;;;;;3.60;3.00;;;;;;;22.40;41.90;100172.12;108897;1278;23071;-76
2023/05/16 10:48:46;;;;;;;4.70;2.70;;;;;;;22.27;42.20;100178.58;108646;1279;22065;-80
2023/05/16 10:51:29;;;;;;;5.30;3.00;;;;;;;22.20;42.26;100175.80;108926;1279;22361;-80
2023/05/16 10:54:52;;;;;;;4.80;3.00;;;;;;;22.10;42.62;100179.72;108737;1285;22031;-82
2023/05/16 10:57:51;;;;;;;9.50;3.50;;;;;;;22.01;42.80;100173.93;108371;1287;22071;-79
2023/05/16 11:00:22;;;;;;;7.20;2.90;;;;;;;22.02;43.04;100171.95;108203;1288;22279;-81
2023/05/16 11:03:23;;;;;;;4.80;2.90;;;;;;;21.97;42.69;100169.53;108440;1286;22047;-80
2023/05/16 11:06:04;;;;;;;24.70;22.30;;;;;;;21.82;42.77;100167.89;108659;1281;23643;-80
2023/05/16 11:09:26;;;;;;;5.30;4.30;;;;;;;21.65;42.97;100169.19;108956;1281;22076;-80
2023/05/16 11:12:02;;;;;;;6.10;3.70;;;;;;;21.60;43.19;100167.81;108973;1270;22012;-81
2023/05/16 11:14:46;;;;;;;5.90;2.90;;;;;;;21.54;43.43;100162.84;108897;1280;22068;-80
2023/05/16 11:17:30;;;;;;;10.80;3.30;;;;;;;21.45;43.03;100144.50;108954;1280;23074;-80
2023/05/16 11:20:33;;;;;;;8.50;2.90;;;;;;;21.38;43.39;100144.54;109321;1274;22066;-79
2023/05/16 11:23:21;;;;;;;3.20;2.90;;;;;;;21.38;43.64;100150.19;109196;1274;23725;-80
2023/05/16 11:26:09;;;;;;;3.80;3.20;;;;;;;21.37;43.79;100153.31;109425;1275;23614;-81
2023/05/16 11:28:44;;;;;;;5.50;2.70;;;;;;;21.40;43.67;100157.33;109400;1275;22857;-79
2023/05/16 11:31:55;;;;;;;3.30;2.80;;;;;;;21.37;43.41;100160.74;109566;1275;22976;-80
2023/05/16 11:34:44;;;;;;;4.50;3.30;;;;;;;21.29;43.18;100153.27;109736;1271;22028;-79
2023/05/16 11:37:59;;;;;;;;;;;;;;;;;;;;;
2023/05/16 11:40:44;;;;;;;4.20;3.80;;;;;;;21.36;43.81;100154.79;109394;1275;23157;-80
2023/05/16 11:43:29;;;;;;;3.80;3.00;;;;;;;21.43;43.40;100154.55;109590;1274;22007;-80
2023/05/16 11:46:12;;;;;;;3.60;2.90;;;;;;;21.40;42.99;100152.38;109323;1274;24459;-80
2023/05/16 11:48:56;;;;;;;7.00;3.80;;;;;;;21.40;43.02;100150.57;109479;1274;23042;-81
2023/05/16 11:51:34;;;;;;;8.50;2.90;;;;;;;21.49;43.03;100151.46;109442;1273;22447;-80
2023/05/16 11:54:08;;;;;;;15.70;3.60;;;;;;;21.52;43.11;100147.63;109599;1274;23771;-79
2023/05/16 11:56:41;;;;;;;3.50;3.00;;;;;;;21.59;43.28;100149.27;109464;1274;22067;-80
2023/05/16 11:59:16;;;;;;;6.20;3.10;;;;;;;21.67;43.17;100151.85;109162;1272;22685;-78
2023/05/16 12:02:04;;;;;;;4.60;3.30;;;;;;;21.60;42.78;100151.90;109345;1276;22408;-81
2023/05/16 12:04:46;;;;;;;4.70;3.10;;;;;;;21.64;43.22;100153.45;109216;1275;23087;-80
2023/05/16 12:07:20;;;;;;;8.00;3.50;;;;;;;21.73;43.32;100147.92;109514;1272;21980;-85
2023/05/16 12:10:01;;;;;;;3.50;2.80;;;;;;;21.83;43.10;100153.91;109782;1272;21964;-84
2023/05/16 12:12:51;;;;;;;3.10;2.10;;;;;;;21.83;42.50;100156.45;109266;1276;23109;-85
2023/05/16 12:15:38;;;;;;;3.90;2.90;;;;;;;21.74;42.30;100153.17;109326;1270;24647;-85
2023/05/16 12:18:37;;;;;;;3.40;2.20;;;;;;;21.70;41.94;100150.10;109843;1269;22273;-84
2023/05/16 12:21:23;;;;;;;3.80;2.50;;;;;;;21.72;41.77;100149.44;109891;1269;21981;-84
2023/05/16 12:24:15;;;;;;;3.10;2.80;;;;;;;21.75;41.68;100144.58;109231;1276;23631;-84
2023/05/16 12:27:10;;;;;;;7.40;3.00;;;;;;;21.80;42.01;100148.20;109010;1269;21989;-84
2023/05/16 12:29:49;;;;;;;5.20;2.70;;;;;;;21.88;41.90;100152.10;108949;1281;22072;-84
2023/05/16 12:32:25;;;;;;;5.30;3.00;;;;;;;21.89;41.78;100155.02;108998;1279;23071;-83